Time;durP1;ratioP1;P1;durP2;ratioP2;P2;SDS_P1;SDS_P2;PMS_P1;PMS_P2;Temp;Humidity;BMP_temperature;BMP_pressure;BME280_temperature;BME280_humidity;BME280_pressure;Samples;Min_cycle;Max_cycle;Signal;HPM_P1;HPM_P2
2022/06/18 00:02:23;;;;;;;9.70;8.35;;;;;;;26.71;53.27;101585.78;5047030;28;20060;-78
2022/06/18 00:04:50;;;;;;;10.50;7.95;;;;;;;27.23;54.03;101644.50;5045286;28;20044;-79
2022/06/18 00:07:21;;;;;;;10.35;7.75;;;;;;;27.25;53.76;101658.75;5045047;28;20089;-78
2022/06/18 00:10:16;;;;;;;12.07;8.10;;;;;;;27.08;53.78;101655.69;5044930;28;20498;-79
2022/06/18 00:15:33;;;;;;;9.23;8.18;;;;;;;26.86;54.47;101654.38;5046171;28;20140;-78
2022/06/18 00:18:01;;;;;;;9.52;8.52;;;;;;;26.97;54.19;101672.75;5044708;28;20045;-80
2022/06/18 00:20:32;;;;;;;10.18;9.30;;;;;;;26.93;54.58;101665.25;5044380;28;20045;-79
2022/06/18 00:23:02;;;;;;;12.60;9.57;;;;;;;26.91;54.39;101670.91;5044556;28;20053;-79
2022/06/18 00:25:38;;;;;;;10.88;9.77;;;;;;;26.75;53.90;101639.59;5044380;28;20469;-79
2022/06/18 00:28:13;;;;;;;15.25;11.27;;;;;;;26.78;54.09;101668.28;5046712;28;20073;-79
2022/06/18 00:30:41;;;;;;;12.60;11.35;;;;;;;26.59;54.29;101646.38;5051212;28;20138;-78
2022/06/18 00:33:11;;;;;;;13.77;10.43;;;;;;;26.41;54.56;101632.63;5052354;28;20037;-77
2022/06/18 00:35:39;;;;;;;17.33;10.88;;;;;;;26.50;54.74;101655.81;5050499;28;20122;-80
2022/06/18 00:38:10;;;;;;;15.32;11.63;;;;;;;26.49;54.76;101669.66;5048689;28;20457;-80
2022/06/18 00:40:41;;;;;;;16.38;10.50;;;;;;;25.99;55.02;101608.47;5066644;28;20044;-80
2022/06/18 00:43:40;;;;;;;13.85;10.70;;;;;;;26.14;55.13;101646.34;5070413;28;20526;-80
2022/06/18 00:46:16;;;;;;;12.48;11.27;;;;;;;26.22;55.36;101662.41;5037473;28;20333;-80
2022/06/18 00:49:20;;;;;;;17.17;11.38;;;;;;;26.04;55.48;101639.66;5074454;28;20080;-79
2022/06/18 00:52:01;;;;;;;11.80;10.52;;;;;;;26.01;55.62;101640.91;5058560;28;20056;-80
2022/06/18 00:54:43;;;;;;;12.30;10.65;;;;;;;26.10;55.41;101641.53;5093487;28;20059;-82
2022/06/18 00:57:20;;;;;;;13.02;10.93;;;;;;;26.22;55.34;101665.13;5094174;28;20041;-81
2022/06/18 00:59:52;;;;;;;12.27;11.00;;;;;;;26.16;55.71;101657.81;5069053;28;20513;-80
2022/06/18 01:02:23;;;;;;;12.05;10.80;;;;;;;25.91;55.34;101616.06;5070021;28;20595;-80
2022/06/18 01:04:49;;;;;;;15.30;11.07;;;;;;;26.18;55.44;101658.44;5067939;28;20057;-80
2022/06/18 01:07:37;;;;;;;14.43;10.55;;;;;;;26.27;55.24;101655.50;5067597;28;20999;-80
2022/06/18 01:10:12;;;;;;;12.38;10.10;;;;;;;26.23;55.30;101663.25;5067787;28;20251;-80
2022/06/18 01:12:40;;;;;;;12.00;10.90;;;;;;;26.14;55.50;101654.50;5068832;28;20052;-80
2022/06/18 01:15:10;;;;;;;11.25;10.15;;;;;;;26.21;55.44;101668.91;5068499;28;20048;-80
2022/06/18 01:17:40;;;;;;;12.10;10.57;;;;;;;25.53;55.31;101552.31;5067576;28;20044;-80
2022/06/18 01:20:10;;;;;;;12.60;10.52;;;;;;;25.51;55.31;101537.25;5067487;28;20053;-79
2022/06/18 01:22:55;;;;;;;12.27;10.53;;;;;;;26.22;55.53;101678.75;5067332;28;20045;-79
2022/06/18 01:25:26;;;;;;;13.35;10.43;;;;;;;25.77;55.45;101613.31;5067204;28;20136;-80
2022/06/18 01:27:56;;;;;;;10.68;9.63;;;;;;;26.13;56.17;101677.31;5067296;28;20106;-80
2022/06/18 01:30:27;;;;;;;14.70;11.38;;;;;;;26.16;55.55;101681.47;5068614;28;20486;-79
2022/06/18 01:32:55;;;;;;;;;;;;;;;26.07;55.81;101678.16;5067852;28;20059;-81
2022/06/18 01:35:23;;;;;;;12.52;11.10;;;;;;;25.93;55.75;101654.75;5068947;28;19928;-80
2022/06/18 01:37:50;;;;;;;16.45;10.77;;;;;;;26.08;55.73;101674.38;5066935;28;20056;-79
2022/06/18 01:40:25;;;;;;;13.20;10.68;;;;;;;25.99;55.84;101653.91;5051749;28;20081;-80
2022/06/18 01:42:58;;;;;;;15.65;10.85;;;;;;;26.05;55.59;101669.38;5046461;28;20454;-80
2022/06/18 01:45:29;;;;;;;11.73;10.57;;;;;;;25.99;55.64;101648.44;5047943;28;20045;-80
2022/06/18 01:48:02;;;;;;;13.05;10.63;;;;;;;26.20;56.37;101669.94;5046492;28;20052;-80
2022/06/18 01:50:38;;;;;;;14.68;9.95;;;;;;;25.85;55.95;101597.81;5046837;28;20289;-80
2022/06/18 01:53:20;;;;;;;16.27;10.38;;;;;;;26.01;55.64;101659.97;5055509;28;20568;-80
2022/06/18 01:55:53;;;;;;;12.32;11.05;;;;;;;26.11;55.82;101671.22;5066611;28;20106;-80
2022/06/18 01:58:27;;;;;;;12.73;11.32;;;;;;;25.79;55.75;101622.09;5066792;28;20102;-81
2022/06/18 02:00:57;;;;;;;18.80;10.35;;;;;;;26.14;55.92;101676.28;5066554;28;20053;-79
2022/06/18 02:03:24;;;;;;;14.80;11.90;;;;;;;26.17;55.54;101681.28;5066290;28;20056;-80
2022/06/18 02:05:51;;;;;;;14.50;11.80;;;;;;;26.13;55.94;101676.47;5066317;28;20056;-80
2022/06/18 02:08:19;;;;;;;13.25;11.90;;;;;;;25.84;56.20;101645.13;5066113;28;20117;-81
2022/06/18 02:10:53;;;;;;;13.60;11.85;;;;;;;25.71;56.64;101630.50;5065560;28;20051;-80
2022/06/18 02:13:23;;;;;;;14.35;12.30;;;;;;;26.01;57.24;101665.41;5064518;28;20052;-80
2022/06/18 02:15:52;;;;;;;13.33;12.13;;;;;;;25.95;57.31;101664.38;5053043;28;20057;-79
2022/06/18 02:18:19;;;;;;;13.13;11.93;;;;;;;25.66;56.89;101643.91;5046504;28;20498;-80
2022/06/18 02:20:53;;;;;;;18.65;13.02;;;;;;;25.86;57.25;101660.22;5046188;28;20128;-77
2022/06/18 02:23:24;;;;;;;21.95;12.20;;;;;;;25.93;56.88;101665.66;5046419;28;20128;-79
2022/06/18 02:25:51;;;;;;;15.18;13.70;;;;;;;25.96;56.82;101662.50;5046508;28;20056;-79
2022/06/18 02:28:26;;;;;;;13.57;12.20;;;;;;;25.92;56.98;101666.69;5045920;28;20049;-80
2022/06/18 02:30:58;;;;;;;14.10;12.18;;;;;;;25.72;57.19;101656.63;5046793;28;20074;-78
2022/06/18 02:33:31;;;;;;;15.48;13.93;;;;;;;25.66;57.25;101668.38;5045998;28;20051;-79
2022/06/18 02:36:05;;;;;;;15.02;13.52;;;;;;;25.36;57.52;101633.44;5045972;28;20465;-79
2022/06/18 02:38:32;;;;;;;17.73;13.77;;;;;;;25.38;57.55;101642.22;5047472;28;20130;-79
2022/06/18 02:40:59;;;;;;;16.25;14.07;;;;;;;25.42;57.39;101669.03;5046491;28;20049;-78
2022/06/18 02:43:29;;;;;;;17.10;14.23;;;;;;;25.11;58.13;101651.41;5045780;28;20049;-79
2022/06/18 02:45:56;;;;;;;15.05;13.15;;;;;;;25.02;58.66;101672.47;5045607;28;20127;-79
2022/06/18 02:48:28;;;;;;;18.20;13.60;;;;;;;25.02;58.77;101687.94;5045635;28;20045;-80
2022/06/18 02:50:57;;;;;;;14.20;12.90;;;;;;;23.53;58.96;101458.84;5044926;28;20114;-79
2022/06/18 02:53:24;;;;;;;17.20;13.20;;;;;;;25.03;59.17;101703.22;5056590;28;20051;-80
2022/06/18 02:55:55;;;;;;;18.13;13.35;;;;;;;25.09;59.16;101705.09;5065412;28;20051;-79
2022/06/18 02:58:28;;;;;;;13.55;11.98;;;;;;;25.10;59.04;101704.91;5065900;28;20090;-79
2022/06/18 03:00:58;;;;;;;16.67;13.43;;;;;;;24.98;59.30;101700.25;5065864;28;20178;-79
2022/06/18 03:03:29;;;;;;;16.63;12.90;;;;;;;25.00;59.29;101703.59;5065652;28;20115;-79
2022/06/18 03:05:57;;;;;;;14.55;13.00;;;;;;;24.91;59.55;101690.22;5066486;28;20619;-79
2022/06/18 03:08:25;;;;;;;15.93;14.40;;;;;;;25.06;59.23;101697.38;5067407;28;20052;-80
2022/06/18 03:13:38;;;;;;;21.80;13.23;;;;;;;24.75;59.05;101639.00;5068216;28;20528;-79
2022/06/18 03:16:08;;;;;;;16.30;12.95;;;;;;;25.06;58.94;101686.50;5068364;28;20490;-79
2022/06/18 03:18:37;;;;;;;15.57;14.00;;;;;;;25.10;59.06;101690.50;5071984;28;20063;-79
2022/06/18 03:21:09;;;;;;;18.73;14.77;;;;;;;24.78;58.96;101657.59;5078875;28;20059;-80
2022/06/18 03:23:36;;;;;;;20.67;14.05;;;;;;;25.06;59.05;101698.19;5085235;28;20044;-81
2022/06/18 03:26:03;;;;;;;19.48;13.63;;;;;;;24.89;59.24;101676.00;5091451;28;20037;-81
2022/06/18 03:28:30;;;;;;;15.25;13.60;;;;;;;24.90;59.37;101699.44;5090837;28;20202;-79
2022/06/18 03:30:56;;;;;;;14.95;13.38;;;;;;;24.95;59.54;101713.22;5067434;28;20372;-81
2022/06/18 03:33:23;;;;;;;14.20;12.82;;;;;;;24.75;59.19;101674.31;5065733;28;20076;-79
2022/06/18 03:35:53;;;;;;;15.00;13.68;;;;;;;24.84;59.33;101711.09;5065701;28;20049;-79
2022/06/18 03:38:22;;;;;;;13.98;11.82;;;;;;;25.08;59.06;101722.47;5065349;28;20444;-79
2022/06/18 03:40:51;;;;;;;14.50;13.02;;;;;;;25.03;58.98;101720.34;5049618;28;20102;-79
2022/06/18 03:43:20;;;;;;;17.80;13.25;;;;;;;24.48;58.58;101622.63;5045453;28;20124;-79
2022/06/18 03:45:49;;;;;;;15.13;11.45;;;;;;;25.04;58.83;101727.44;5045254;28;20311;-79
2022/06/18 03:48:22;;;;;;;14.95;12.75;;;;;;;24.73;58.83;101673.66;5044945;28;20056;-79
2022/06/18 03:50:49;;;;;;;14.35;11.68;;;;;;;25.10;58.48;101723.09;5044608;28;20067;-80
2022/06/18 03:53:16;;;;;;;17.00;12.57;;;;;;;24.73;58.56;101676.38;5055027;28;20076;-79
2022/06/18 03:55:48;;;;;;;14.18;12.77;;;;;;;25.02;58.55;101734.13;5063801;28;20127;-79
2022/06/18 03:58:15;;;;;;;13.68;12.27;;;;;;;25.01;58.22;101727.03;5062858;28;20048;-79
2022/06/18 04:00:42;;;;;;;14.88;13.40;;;;;;;24.98;58.61;101728.28;5062842;28;20040;-80
2022/06/18 04:03:09;;;;;;;14.90;13.05;;;;;;;24.90;59.06;101732.03;5065166;28;20057;-79
2022/06/18 04:05:40;;;;;;;14.20;12.75;;;;;;;24.88;59.04;101739.53;5066982;28;20055;-80
2022/06/18 04:08:06;;;;;;;14.90;13.15;;;;;;;24.66;58.90;101699.94;5067044;28;20565;-78
2022/06/18 04:10:33;;;;;;;16.67;12.80;;;;;;;24.78;58.68;101736.34;5067395;28;20080;-79
2022/06/18 04:13:00;;;;;;;14.57;12.85;;;;;;;24.83;58.87;101747.47;5056365;28;20049;-79
2022/06/18 04:15:26;;;;;;;17.38;13.93;;;;;;;24.80;58.74;101739.69;5046903;28;20041;-79
2022/06/18 04:17:53;;;;;;;15.85;12.63;;;;;;;24.76;58.97;101751.16;5047377;28;20048;-78
2022/06/18 04:20:24;;;;;;;14.05;12.50;;;;;;;24.67;59.01;101750.50;5054891;28;20102;-80
2022/06/18 04:22:51;;;;;;;12.95;11.65;;;;;;;24.63;59.24;101747.34;5066416;28;20060;-79
2022/06/18 04:25:18;;;;;;;15.93;13.23;;;;;;;23.97;59.56;101644.72;5048005;28;20057;-79
2022/06/18 04:27:45;;;;;;;15.25;13.25;;;;;;;24.77;59.34;101750.13;5047272;28;20286;-79
2022/06/18 04:30:15;;;;;;;14.40;12.70;;;;;;;24.57;59.44;101720.19;5047954;28;20060;-79
2022/06/18 04:32:42;;;;;;;18.00;13.38;;;;;;;24.82;59.38;101750.38;5046345;28;20127;-80
2022/06/18 04:35:11;;;;;;;16.50;14.25;;;;;;;24.85;58.99;101748.06;5046284;28;20045;-79
2022/06/18 04:38:09;;;;;;;14.98;13.55;;;;;;;24.80;59.23;101753.28;5053984;28;20079;-78
2022/06/18 04:40:56;;;;;;;13.98;12.10;;;;;;;24.55;59.24;101727.69;5047838;28;20155;-79
2022/06/18 04:43:25;;;;;;;14.68;12.38;;;;;;;24.88;58.83;101750.41;5047064;28;20049;-79
2022/06/18 04:45:54;;;;;;;13.80;12.50;;;;;;;24.23;58.30;101633.16;5046322;28;20056;-79
2022/06/18 04:48:21;;;;;;;16.23;13.40;;;;;;;24.85;58.57;101750.78;5047711;28;20045;-80
2022/06/18 04:50:48;;;;;;;15.88;14.07;;;;;;;24.89;58.56;101752.06;5046086;28;20056;-77
2022/06/18 04:53:15;;;;;;;14.32;12.93;;;;;;;24.84;58.63;101743.69;5055637;28;20122;-79
2022/06/18 04:55:41;;;;;;;13.68;12.32;;;;;;;24.71;58.41;101721.91;5066115;28;20052;-80
2022/06/18 04:58:09;;;;;;;14.15;12.75;;;;;;;24.78;58.39;101732.78;5067086;28;20106;-80
2022/06/18 05:00:37;;;;;;;13.95;12.52;;;;;;;25.00;58.26;101763.38;5066843;28;20414;-79
2022/06/18 05:03:03;;;;;;;12.65;11.38;;;;;;;24.77;58.23;101726.53;5054448;28;20426;-79
2022/06/18 05:05:30;;;;;;;12.95;11.75;;;;;;;24.70;58.65;101703.94;5047227;28;20055;-79
2022/06/18 05:07:57;;;;;;;19.63;12.98;;;;;;;25.20;57.90;101758.88;5065888;28;20395;-78
2022/06/18 05:10:24;;;;;;;15.00;11.55;;;;;;;25.18;57.63;101755.53;5066199;28;20055;-79
2022/06/18 05:12:51;;;;;;;20.98;12.57;;;;;;;25.19;57.56;101753.63;5064779;28;20744;-82
2022/06/18 05:15:18;;;;;;;12.82;11.48;;;;;;;25.18;58.19;101760.97;5062409;28;20051;-79
2022/06/18 05:17:46;;;;;;;13.13;11.80;;;;;;;25.22;58.06;101764.09;5045507;28;20534;-78
2022/06/18 05:20:20;;;;;;;14.95;12.20;;;;;;;25.27;57.95;101758.88;5063533;28;20174;-78
2022/06/18 05:22:48;;;;;;;18.92;13.63;;;;;;;25.26;58.01;101740.91;5064094;28;20056;-80
2022/06/18 05:25:15;;;;;;;14.18;12.60;;;;;;;25.31;58.05;101730.25;5046164;28;20079;-80
2022/06/18 05:27:45;;;;;;;18.63;12.23;;;;;;;25.38;58.65;101741.97;5046875;28;20061;-80
2022/06/18 05:30:15;;;;;;;19.30;14.18;;;;;;;25.48;57.94;101744.28;5045986;28;20049;-80
2022/06/18 05:32:42;;;;;;;15.17;13.53;;;;;;;25.45;57.93;101739.25;5046834;28;20337;-80
2022/06/18 05:35:11;;;;;;;16.23;13.65;;;;;;;25.43;57.95;101754.94;5044911;28;20298;-80
2022/06/18 05:37:39;;;;;;;17.75;13.65;;;;;;;25.43;58.17;101754.94;5046326;28;20053;-79
2022/06/18 05:40:07;;;;;;;14.15;12.63;;;;;;;25.42;57.82;101753.28;5058624;28;20468;-81
2022/06/18 05:42:33;;;;;;;14.18;12.77;;;;;;;25.37;57.70;101729.44;5066477;28;20328;-80
2022/06/18 05:45:02;;;;;;;18.73;12.63;;;;;;;25.58;57.59;101753.72;5066530;28;20057;-79
2022/06/18 05:47:31;;;;;;;13.98;12.70;;;;;;;25.56;57.48;101741.38;5067099;28;20064;-80
2022/06/18 05:49:58;;;;;;;17.65;12.70;;;;;;;25.67;56.98;101746.16;5066644;28;20072;-80
2022/06/18 05:52:26;;;;;;;15.88;11.77;;;;;;;25.85;56.82;101756.44;5063224;28;20037;-79
2022/06/18 05:54:53;;;;;;;14.32;12.63;;;;;;;25.95;56.28;101762.31;5045878;28;20083;-80
2022/06/18 05:57:21;;;;;;;12.18;10.98;;;;;;;26.07;56.77;101764.38;5046460;28;20241;-81
2022/06/18 05:59:49;;;;;;;13.23;11.93;;;;;;;25.85;55.57;101721.09;5048417;28;20280;-80
2022/06/18 06:02:19;;;;;;;13.65;12.43;;;;;;;25.60;55.22;101677.34;5049331;28;20084;-80
2022/06/18 06:04:47;;;;;;;12.52;10.95;;;;;;;26.38;55.21;101771.88;5049215;28;20045;-79
2022/06/18 06:07:16;;;;;;;13.57;11.05;;;;;;;26.36;55.53;101746.72;5048906;28;20272;-79
2022/06/18 06:12:29;;;;;;;11.20;10.07;;;;;;;26.67;54.65;101773.28;5049123;28;20037;-80
2022/06/18 06:14:56;;;;;;;13.40;11.18;;;;;;;26.67;53.56;101773.28;5048502;28;20361;-79
2022/06/18 06:17:25;;;;;;;14.65;11.15;;;;;;;26.32;53.67;101705.50;5048972;28;20528;-79
2022/06/18 06:19:58;;;;;;;12.82;10.57;;;;;;;26.74;54.04;101776.81;5048809;28;20583;-78
2022/06/18 06:22:25;;;;;;;15.73;12.35;;;;;;;26.85;53.67;101780.75;5049181;28;20048;-78
2022/06/18 06:24:52;;;;;;;14.30;11.30;;;;;;;26.86;53.92;101779.69;5048074;28;20147;-78
2022/06/18 06:27:19;;;;;;;12.52;11.23;;;;;;;26.90;53.49;101796.47;5049374;28;20090;-79
2022/06/18 06:29:46;;;;;;;13.07;11.20;;;;;;;26.99;53.74;101785.09;5049105;28;20110;-79
2022/06/18 06:32:13;;;;;;;11.50;10.57;;;;;;;27.04;53.34;101777.13;5049161;28;20052;-79
2022/06/18 06:34:39;;;;;;;10.95;9.82;;;;;;;27.03;53.25;101774.59;5064282;28;20049;-78
2022/06/18 06:37:06;;;;;;;10.85;9.60;;;;;;;27.23;52.61;101785.41;5069256;28;20052;-79
2022/06/18 06:39:52;;;;;;;9.70;8.85;;;;;;;27.37;51.19;101787.00;5060450;28;20111;-79
2022/06/18 06:42:18;;;;;;;10.57;9.32;;;;;;;27.53;53.47;101785.66;5069383;28;20242;-78
2022/06/18 06:44:46;;;;;;;10.32;8.50;;;;;;;27.27;51.80;101753.94;5065553;28;20333;-78
2022/06/18 06:47:12;;;;;;;11.63;9.75;;;;;;;27.25;52.27;101762.31;5050449;28;20106;-79
2022/06/18 06:49:40;;;;;;;10.70;9.35;;;;;;;27.49;52.15;101752.50;5050260;28;20049;-79
2022/06/18 06:52:09;;;;;;;10.80;8.40;;;;;;;27.31;50.54;101766.09;5050927;28;20087;-78
2022/06/18 06:54:36;;;;;;;10.40;9.50;;;;;;;27.45;51.85;101794.06;5070261;28;20044;-79
2022/06/18 06:57:21;;;;;;;10.40;9.40;;;;;;;27.60;51.77;101785.56;5069756;28;20048;-77
2022/06/18 06:59:49;;;;;;;11.20;8.98;;;;;;;27.63;51.56;101771.53;5070788;28;20063;-77
2022/06/18 07:02:19;;;;;;;10.70;9.23;;;;;;;27.65;51.61;101792.06;5070108;28;20537;-78
2022/06/18 07:04:47;;;;;;;11.38;9.00;;;;;;;27.32;51.55;101691.41;5070440;28;20056;-77
2022/06/18 07:07:15;;;;;;;10.07;8.90;;;;;;;27.79;51.71;101792.78;5053762;28;20044;-79
2022/06/18 07:09:44;;;;;;;10.32;8.15;;;;;;;27.81;51.73;101777.03;5070675;28;20052;-78
2022/06/18 07:12:11;;;;;;;9.88;8.98;;;;;;;27.74;51.20;101759.88;5070202;28;20553;-79
2022/06/18 07:14:37;;;;;;;10.05;8.93;;;;;;;27.78;51.72;101785.66;5070027;28;20087;-76
2022/06/18 07:17:04;;;;;;;9.45;8.48;;;;;;;27.96;50.57;101784.06;5070560;28;20060;-78
2022/06/18 07:19:31;;;;;;;13.95;8.30;;;;;;;27.99;50.73;101770.81;5069083;28;20052;-80
2022/06/18 07:21:58;;;;;;;11.65;8.93;;;;;;;27.87;52.16;101769.88;5070516;28;20106;-78
2022/06/18 07:24:25;;;;;;;9.23;8.20;;;;;;;27.75;51.50;101728.81;5069127;28;20067;-79
2022/06/18 07:26:51;;;;;;;8.88;7.97;;;;;;;28.03;51.98;101784.84;5068867;28;20060;-78
2022/06/18 07:29:20;;;;;;;9.45;8.55;;;;;;;28.12;51.43;101772.59;5070133;28;20060;-79
2022/06/18 07:31:48;;;;;;;11.88;8.40;;;;;;;28.02;51.28;101780.47;5070386;28;20049;-79
2022/06/18 07:34:16;;;;;;;12.18;8.20;;;;;;;27.88;51.17;101745.09;5071223;28;20049;-78
2022/06/18 07:36:43;;;;;;;12.88;9.25;;;;;;;28.19;51.11;101776.09;5079488;28;20028;-79
2022/06/18 07:39:10;;;;;;;8.38;7.68;;;;;;;28.20;51.61;101775.00;5092235;28;20055;-80
2022/06/18 07:41:45;;;;;;;8.80;8.00;;;;;;;28.29;51.23;101767.38;5074888;28;20037;-79
2022/06/18 07:44:12;;;;;;;8.43;7.72;;;;;;;28.38;50.29;101767.94;5054313;28;20067;-78
2022/06/18 07:46:39;;;;;;;9.02;8.25;;;;;;;28.47;51.08;101772.03;5053049;28;20041;-78
2022/06/18 07:49:06;;;;;;;8.98;8.20;;;;;;;28.24;51.79;101698.97;5053264;28;20451;-78
2022/06/18 07:51:33;;;;;;;11.73;8.10;;;;;;;28.42;51.93;101750.00;5052855;28;20056;-79
2022/06/18 07:54:00;;;;;;;8.40;7.60;;;;;;;27.84;52.17;101662.03;5069194;28;20053;-78
2022/06/18 07:56:27;;;;;;;9.60;8.38;;;;;;;28.58;50.81;101754.06;5073006;28;20049;-78
2022/06/18 07:58:53;;;;;;;9.18;8.48;;;;;;;28.44;51.78;101748.72;5072945;28;20037;-78
2022/06/18 08:01:20;;;;;;;7.97;7.22;;;;;;;28.11;51.72;101683.59;5072964;28;20056;-78
2022/06/18 08:03:47;;;;;;;10.73;8.13;;;;;;;28.49;52.06;101739.88;5072684;28;20044;-78
2022/06/18 08:06:14;;;;;;;13.57;7.68;;;;;;;28.64;52.10;101751.22;5072754;28;20170;-77
2022/06/18 08:08:40;;;;;;;6.60;6.00;;;;;;;28.42;51.63;101744.53;5072637;28;20094;-77
2022/06/18 08:11:11;;;;;;;9.25;7.22;;;;;;;28.60;51.48;101730.09;5072057;28;20052;-77
2022/06/18 08:13:38;;;;;;;8.52;7.82;;;;;;;28.80;52.19;101748.94;5072599;28;20075;-79
2022/06/18 08:16:05;;;;;;;8.10;7.40;;;;;;;28.70;52.01;101739.41;5072373;28;20456;-79
2022/06/18 08:18:32;;;;;;;8.13;7.43;;;;;;;28.63;51.62;101746.84;5072707;28;20063;-78
2022/06/18 08:21:19;;;;;;;7.63;6.93;;;;;;;28.71;49.06;101748.41;5073678;28;20052;-77
2022/06/18 08:23:47;;;;;;;10.43;7.30;;;;;;;28.55;51.63;101744.44;5064431;28;20081;-79
2022/06/18 08:26:14;;;;;;;11.07;7.50;;;;;;;28.63;51.13;101738.66;5072242;28;20040;-79
2022/06/18 08:28:43;;;;;;;7.88;7.10;;;;;;;28.75;50.91;101728.59;5072702;28;20050;-78
2022/06/18 08:31:10;;;;;;;7.82;7.13;;;;;;;28.36;51.81;101693.59;5071450;28;20233;-78
2022/06/18 08:33:37;;;;;;;10.45;7.72;;;;;;;28.66;50.98;101735.44;5071006;28;20494;-77
2022/06/18 08:36:08;;;;;;;8.65;7.20;;;;;;;28.76;50.97;101743.09;5071712;28;20470;-79
2022/06/18 08:38:38;;;;;;;8.00;7.22;;;;;;;28.67;51.53;101731.66;5072594;28;20540;-80
2022/06/18 08:41:17;;;;;;;8.32;7.45;;;;;;;28.59;50.85;101731.97;5052566;28;20045;-78
2022/06/18 08:44:15;;;;;;;8.52;7.80;;;;;;;28.85;51.85;101751.81;5052757;28;20113;-78
2022/06/18 08:46:45;;;;;;;11.75;7.30;;;;;;;28.44;49.07;101693.25;5052232;28;20502;-78
2022/06/18 08:49:42;;;;;;;7.63;7.03;;;;;;;28.51;50.16;101688.59;5051930;28;20475;-79
2022/06/18 08:52:44;;;;;;;8.43;7.63;;;;;;;28.82;49.94;101723.06;5053318;28;20045;-78
2022/06/18 08:55:19;;;;;;;7.80;7.18;;;;;;;29.11;49.98;101740.56;5072401;28;20059;-78
2022/06/18 08:57:55;;;;;;;8.50;7.70;;;;;;;28.95;50.52;101743.91;5072526;28;20674;-78
2022/06/18 09:00:42;;;;;;;8.10;7.28;;;;;;;28.97;50.71;101722.63;5072515;28;20079;-79
2022/06/18 09:03:37;;;;;;;7.85;7.03;;;;;;;28.90;50.71;101741.03;5072365;28;20052;-78
2022/06/18 09:06:43;;;;;;;7.78;7.10;;;;;;;28.86;51.13;101740.69;5072521;28;20052;-78
2022/06/18 09:09:41;;;;;;;8.45;7.63;;;;;;;28.55;50.58;101715.22;5064581;28;20052;-78
2022/06/18 09:12:17;;;;;;;7.03;6.45;;;;;;;28.76;51.46;101735.75;5073859;28;20094;-78
2022/06/18 09:14:54;;;;;;;8.93;7.20;;;;;;;28.93;51.23;101740.56;5072752;28;20127;-77
2022/06/18 09:17:30;;;;;;;7.25;6.75;;;;;;;28.49;50.77;101691.53;5073204;28;20539;-78
2022/06/18 09:20:06;;;;;;;7.28;6.57;;;;;;;28.82;51.10;101742.19;5071171;28;20056;-78
2022/06/18 09:22:37;;;;;;;10.00;6.72;;;;;;;28.71;51.22;101740.22;5072528;28;20090;-78
2022/06/18 09:25:10;;;;;;;;;;;;;;;28.85;50.83;101749.91;5072589;28;20563;-78
2022/06/18 09:27:53;;;;;;;9.48;7.35;;;;;;;28.99;50.11;101750.59;5072189;28;19928;-78
2022/06/18 09:30:32;;;;;;;8.40;7.60;;;;;;;29.01;51.05;101747.59;5072103;28;20617;-79
2022/06/18 09:33:08;;;;;;;9.52;7.57;;;;;;;28.88;50.86;101743.97;5072002;28;20677;-78
2022/06/18 09:35:41;;;;;;;7.75;7.00;;;;;;;28.86;50.18;101756.22;5072340;28;20071;-79
2022/06/18 09:38:31;;;;;;;7.55;6.85;;;;;;;28.85;48.93;101747.19;5071984;28;20052;-77
2022/06/18 09:41:03;;;;;;;6.87;6.37;;;;;;;28.70;50.99;101724.91;5051124;28;20052;-78
2022/06/18 09:43:45;;;;;;;8.35;6.75;;;;;;;28.68;48.26;101748.88;5051514;28;20147;-78
2022/06/18 09:46:20;;;;;;;8.25;6.95;;;;;;;28.82;49.87;101736.72;5050807;28;20057;-79
2022/06/18 09:48:47;;;;;;;7.45;6.78;;;;;;;29.08;49.58;101746.50;5051083;28;20037;-78
2022/06/18 09:51:31;;;;;;;7.35;6.63;;;;;;;28.83;48.29;101718.44;5051679;28;20410;-78
2022/06/18 09:54:03;;;;;;;6.55;5.95;;;;;;;28.94;43.91;101747.72;5063213;28;20072;-79
2022/06/18 09:56:35;;;;;;;7.07;6.47;;;;;;;27.77;49.24;101530.28;5067187;28;20475;-79
2022/06/18 09:59:13;;;;;;;9.60;6.93;;;;;;;29.16;49.20;101740.69;5051759;28;20049;-80
2022/06/18 10:01:44;;;;;;;7.47;6.60;;;;;;;29.21;49.71;101750.09;5050398;28;20057;-79
2022/06/18 10:07:08;;;;;;;7.32;6.63;;;;;;;29.09;45.15;101742.69;5051707;28;20452;-79
2022/06/18 10:09:47;;;;;;;7.47;6.80;;;;;;;29.01;49.54;101726.59;5068167;28;20076;-80
2022/06/18 10:12:19;;;;;;;8.18;6.95;;;;;;;29.12;49.01;101750.41;5053817;28;20107;-79
2022/06/18 10:14:57;;;;;;;9.32;6.97;;;;;;;28.96;48.85;101710.06;5085011;28;20102;-81
2022/06/18 10:18:00;;;;;;;6.88;6.18;;;;;;;29.25;43.79;101737.59;5074922;28;20083;-80
2022/06/18 10:20:57;;;;;;;7.57;6.85;;;;;;;29.31;47.46;101737.50;5072041;28;20041;-79
2022/06/18 10:23:37;;;;;;;9.57;5.88;;;;;;;28.96;48.28;101671.78;5050835;28;20049;-80
2022/06/18 10:26:15;;;;;;;6.80;6.10;;;;;;;29.19;45.96;101734.75;5051491;28;20107;-81
2022/06/18 10:29:02;;;;;;;8.30;6.55;;;;;;;28.63;47.76;101593.84;5050852;28;20041;-79
2022/06/18 10:32:05;;;;;;;7.97;7.28;;;;;;;29.46;47.70;101728.88;5046273;28;20052;-81
2022/06/18 10:35:21;;;;;;;10.15;6.75;;;;;;;29.59;43.88;101736.88;5065712;28;20047;-79
2022/06/18 10:37:59;;;;;;;6.88;6.25;;;;;;;29.51;46.32;101737.19;5049974;28;20045;-78
2022/06/18 10:40:57;;;;;;;7.30;6.55;;;;;;;29.71;47.20;101711.44;5067325;28;20550;-78
2022/06/18 10:43:42;;;;;;;7.15;6.50;;;;;;;29.54;44.04;101714.84;5071263;28;20060;-78
2022/06/18 10:46:14;;;;;;;9.05;6.90;;;;;;;29.51;45.58;101693.41;5069852;28;20044;-79
2022/06/18 10:48:47;;;;;;;6.38;5.90;;;;;;;29.78;46.17;101698.47;5070779;28;20064;-78
2022/06/18 10:51:17;;;;;;;10.00;6.57;;;;;;;29.73;46.51;101657.31;5070131;28;20062;-78
2022/06/18 10:53:51;;;;;;;9.25;6.32;;;;;;;29.98;46.02;101717.28;5069738;28;20050;-79
2022/06/18 10:56:24;;;;;;;6.38;5.88;;;;;;;29.99;47.03;101721.66;5070175;28;20125;-78
2022/06/18 10:59:00;;;;;;;7.18;6.43;;;;;;;29.86;45.45;101680.84;5069828;28;20063;-78
2022/06/18 11:01:35;;;;;;;9.18;6.00;;;;;;;30.32;46.71;101692.81;5069672;28;20048;-78
2022/06/18 11:04:22;;;;;;;8.13;6.18;;;;;;;30.18;43.71;101684.03;5069854;28;20044;-79
2022/06/18 11:06:54;;;;;;;7.07;5.65;;;;;;;30.45;45.38;101695.31;5070500;28;20056;-79
2022/06/18 11:09:33;;;;;;;7.13;6.50;;;;;;;30.75;45.18;101719.72;5071186;28;20056;-78
2022/06/18 11:12:06;;;;;;;6.60;5.85;;;;;;;30.44;43.10;101685.44;5076637;28;20044;-79
2022/06/18 11:14:39;;;;;;;6.88;6.25;;;;;;;30.94;43.69;101712.16;5077062;28;20048;-80
2022/06/18 11:17:19;;;;;;;7.43;6.65;;;;;;;30.85;44.06;101703.53;5070095;28;20653;-79
2022/06/18 11:19:48;;;;;;;7.00;6.40;;;;;;;30.65;44.84;101708.56;5070715;28;20537;-79
2022/06/18 11:22:18;;;;;;;8.32;6.50;;;;;;;30.40;45.73;101706.16;5069722;28;20045;-79
2022/06/18 11:24:54;;;;;;;6.65;6.05;;;;;;;30.02;45.09;101685.59;5069534;28;20505;-79
2022/06/18 11:27:23;;;;;;;8.40;6.55;;;;;;;29.61;45.83;101632.66;5065527;28;20426;-79
2022/06/18 11:29:53;;;;;;;6.85;6.20;;;;;;;30.08;46.47;101684.66;5050921;28;20041;-80
2022/06/18 11:32:30;;;;;;;7.18;6.53;;;;;;;30.25;46.24;101698.47;5049558;28;20052;-80
2022/06/18 11:35:20;;;;;;;6.20;5.70;;;;;;;30.03;44.85;101690.84;5049320;28;20129;-79
2022/06/18 11:38:02;;;;;;;6.80;6.05;;;;;;;29.75;43.69;101638.75;5049844;28;20135;-80
2022/06/18 11:40:30;;;;;;;6.80;6.13;;;;;;;30.49;44.31;101693.75;5060396;28;20103;-80
2022/06/18 11:43:21;;;;;;;6.88;6.18;;;;;;;30.75;42.54;101678.63;5067402;28;20083;-79
2022/06/18 11:45:57;;;;;;;6.75;6.25;;;;;;;31.14;42.16;101684.28;5070350;28;20098;-79
2022/06/18 11:48:40;;;;;;;6.38;5.88;;;;;;;31.02;40.61;101632.28;5069913;28;20102;-80
2022/06/18 11:51:23;;;;;;;6.65;5.90;;;;;;;31.71;42.98;101673.16;5071835;28;20057;-80
2022/06/18 11:54:20;;;;;;;6.75;6.25;;;;;;;31.70;42.18;101671.50;5071531;28;20490;-79